createdAt,value
2023-03-10T00:00:18.818Z,3.43
2023-03-10T00:02:49.472Z,3.50
2023-03-10T00:05:20.251Z,4.00
2023-03-10T00:07:47.754Z,4.10
2023-03-10T00:10:15.051Z,4.10
2023-03-10T00:12:41.738Z,3.30
2023-03-10T00:15:09.965Z,4.07
2023-03-10T00:17:36.995Z,3.58
2023-03-10T00:20:07.924Z,4.07
2023-03-10T00:22:35.335Z,4.20
2023-03-10T00:25:01.818Z,3.20
2023-03-10T00:27:29.166Z,3.92
2023-03-10T00:29:55.894Z,3.47
2023-03-10T00:32:22.423Z,3.53
2023-03-10T00:34:49.126Z,4.07
2023-03-10T00:37:16.323Z,3.97
2023-03-10T00:39:42.891Z,3.60
2023-03-10T00:42:09.394Z,3.42
2023-03-10T00:44:36.000Z,4.53
2023-03-10T00:47:02.847Z,4.05
2023-03-10T00:49:29.334Z,4.53
2023-03-10T00:51:56.342Z,3.55
2023-03-10T00:54:22.854Z,4.10
2023-03-10T00:56:49.409Z,3.58
2023-03-10T00:59:15.954Z,3.58
2023-03-10T01:01:42.982Z,4.03
2023-03-10T01:04:14.837Z,3.60
2023-03-10T01:06:42.344Z,3.78
2023-03-10T01:09:08.866Z,3.90
2023-03-10T01:11:35.626Z,3.95
2023-03-10T01:14:04.741Z,3.83
2023-03-10T01:16:31.314Z,4.78
2023-03-10T01:18:58.877Z,4.43
2023-03-10T01:21:30.158Z,3.85
2023-03-10T01:23:56.891Z,3.83
2023-03-10T01:26:23.422Z,3.83
2023-03-10T01:28:50.159Z,3.80
2023-03-10T01:31:17.542Z,3.70
2023-03-10T01:33:45.515Z,4.10
2023-03-10T01:36:15.920Z,4.05
2023-03-10T01:38:46.143Z,3.90
2023-03-10T01:41:14.797Z,4.25
2023-03-10T01:43:43.785Z,3.63
2023-03-10T01:46:34.315Z,4.03
2023-03-10T01:49:27.244Z,3.40
2023-03-10T01:52:00.073Z,3.70
2023-03-10T01:54:33.535Z,3.80
2023-03-10T01:57:00.383Z,3.45
2023-03-10T01:59:28.068Z,3.22
2023-03-10T02:01:57.685Z,4.00
2023-03-10T02:04:38.343Z,3.47
2023-03-10T02:07:06.395Z,3.30
2023-03-10T02:09:36.458Z,3.30
2023-03-10T02:12:05.187Z,3.50
2023-03-10T02:14:33.074Z,3.25
2023-03-10T02:16:59.786Z,3.60
2023-03-10T02:19:49.769Z,3.15
2023-03-10T02:22:17.185Z,3.40
2023-03-10T02:24:52.414Z,3.33
2023-03-10T02:27:28.790Z,3.60
2023-03-10T02:30:07.722Z,3.87
2023-03-10T02:32:40.986Z,3.90
2023-03-10T02:35:08.551Z,3.55
2023-03-10T02:37:41.803Z,3.65
2023-03-10T02:40:38.036Z,3.20
2023-03-10T02:43:18.382Z,3.57
2023-03-10T02:45:48.056Z,4.30
2023-03-10T02:48:22.483Z,4.32
2023-03-10T02:50:50.912Z,3.75
2023-03-10T02:53:23.324Z,3.63
2023-03-10T02:55:49.921Z,3.57
2023-03-10T02:58:16.768Z,4.05
2023-03-10T03:00:45.512Z,4.00
2023-03-10T03:03:15.861Z,3.55
2023-03-10T03:05:42.552Z,3.88
2023-03-10T03:08:09.589Z,3.80
2023-03-10T03:10:37.240Z,4.10
2023-03-10T03:13:06.198Z,4.45
2023-03-10T03:15:33.224Z,4.68
2023-03-10T03:18:00.282Z,4.82
2023-03-10T03:20:30.316Z,4.77
2023-03-10T03:22:57.662Z,4.68
2023-03-10T03:25:26.572Z,4.40
2023-03-10T03:27:53.992Z,5.07
2023-03-10T03:30:24.066Z,4.55
2023-03-10T03:32:52.385Z,4.53
2023-03-10T03:35:25.830Z,4.35
2023-03-10T03:37:53.356Z,4.25
2023-03-10T03:40:21.157Z,4.95
2023-03-10T03:42:50.673Z,4.97
2023-03-10T03:45:20.008Z,4.47
2023-03-10T03:47:47.641Z,4.53
2023-03-10T03:50:16.233Z,5.03
2023-03-10T03:52:43.844Z,4.85
2023-03-10T03:55:13.512Z,5.65
2023-03-10T03:57:40.484Z,5.80
2023-03-10T04:00:09.585Z,5.10
2023-03-10T04:02:39.702Z,5.55
2023-03-10T04:05:08.812Z,6.07
2023-03-10T04:07:39.132Z,5.93
2023-03-10T04:10:09.940Z,5.07
2023-03-10T04:12:36.503Z,5.82
2023-03-10T04:15:03.765Z,6.50
2023-03-10T04:17:30.375Z,5.65
2023-03-10T04:20:06.549Z,5.47
2023-03-10T04:22:34.975Z,6.23
2023-03-10T04:25:01.807Z,5.80
2023-03-10T04:27:28.507Z,6.18
2023-03-10T04:29:55.127Z,6.38
2023-03-10T04:32:22.036Z,5.85
2023-03-10T04:34:48.575Z,6.40
2023-03-10T04:37:15.525Z,5.38
2023-03-10T04:39:42.127Z,6.00
2023-03-10T04:42:08.836Z,5.70
2023-03-10T04:44:35.450Z,5.70
2023-03-10T04:47:04.813Z,5.50
2023-03-10T04:49:32.096Z,5.05
2023-03-10T04:52:00.025Z,5.10
2023-03-10T04:54:27.531Z,5.63
2023-03-10T04:56:54.168Z,4.15
2023-03-10T04:59:21.562Z,4.20
2023-03-10T05:01:48.364Z,4.22
2023-03-10T05:04:15.002Z,4.93
2023-03-10T05:06:41.803Z,3.88
2023-03-10T05:09:20.322Z,3.88
2023-03-10T05:11:47.687Z,3.67
2023-03-10T05:14:15.600Z,4.13
2023-03-10T05:16:42.453Z,3.78
2023-03-10T05:19:09.374Z,3.65
2023-03-10T05:21:36.543Z,3.70
2023-03-10T05:24:04.084Z,3.93
2023-03-10T05:26:32.690Z,3.80
2023-03-10T05:29:01.100Z,3.60
2023-03-10T05:31:39.046Z,3.13
2023-03-10T05:34:11.208Z,3.08
2023-03-10T05:36:38.116Z,2.93
2023-03-10T05:39:07.265Z,3.03
2023-03-10T05:41:38.480Z,2.78
2023-03-10T05:44:05.854Z,2.38
2023-03-10T05:46:34.701Z,2.60
2023-03-10T05:49:02.525Z,2.40
2023-03-10T05:51:29.521Z,2.47
2023-03-10T05:53:57.639Z,2.05
2023-03-10T05:56:27.528Z,2.05
2023-03-10T05:58:58.497Z,2.17
2023-03-10T06:01:30.419Z,2.30
2023-03-10T06:03:57.141Z,1.88
2023-03-10T06:06:23.843Z,2.25
2023-03-10T06:08:50.361Z,2.30
2023-03-10T06:11:16.940Z,2.35
2023-03-10T06:13:43.420Z,2.03
2023-03-10T06:16:11.384Z,2.13
2023-03-10T06:18:38.147Z,2.05
2023-03-10T06:21:06.681Z,2.10
2023-03-10T06:23:33.241Z,2.30
2023-03-10T06:26:06.807Z,1.23
2023-03-10T06:28:36.628Z,1.70
2023-03-10T06:31:15.461Z,2.35
2023-03-10T06:33:41.979Z,2.05
2023-03-10T06:36:11.239Z,2.25
2023-03-10T06:38:38.054Z,2.50
2023-03-10T06:41:05.549Z,2.20
2023-03-10T06:43:33.200Z,2.20
2023-03-10T06:46:02.267Z,1.92
2023-03-10T06:48:28.838Z,2.13
2023-03-10T06:50:55.416Z,2.97
2023-03-10T06:53:21.996Z,2.00
2023-03-10T06:56:01.692Z,2.75
2023-03-10T06:58:29.346Z,1.80
2023-03-10T07:00:56.015Z,2.60
2023-03-10T07:03:22.703Z,2.20
2023-03-10T07:05:49.231Z,2.58
2023-03-10T07:08:15.755Z,2.58
2023-03-10T07:10:42.330Z,2.08
2023-03-10T07:13:10.691Z,2.20
2023-03-10T07:15:39.845Z,2.00
2023-03-10T07:18:06.586Z,2.70
2023-03-10T07:20:33.155Z,2.70
2023-03-10T07:22:59.634Z,2.70
2023-03-10T07:25:26.319Z,2.70
2023-03-10T07:27:52.923Z,3.03
2023-03-10T07:30:19.562Z,3.10
2023-03-10T07:32:46.143Z,3.40
2023-03-10T07:35:12.708Z,2.88
2023-03-10T07:37:40.302Z,2.95
2023-03-10T07:40:09.165Z,2.73
2023-03-10T07:42:35.642Z,3.33
2023-03-10T07:45:04.281Z,3.70
2023-03-10T07:47:31.082Z,4.53
2023-03-10T07:49:57.655Z,4.07
2023-03-10T07:52:24.188Z,3.93
2023-03-10T07:54:50.827Z,4.32
2023-03-10T07:57:17.319Z,3.85
2023-03-10T07:59:43.831Z,3.80
2023-03-10T08:02:12.906Z,4.10
2023-03-10T08:04:40.618Z,5.10
2023-03-10T08:07:08.060Z,4.63
2023-03-10T08:09:34.858Z,4.60
2023-03-10T08:12:01.972Z,4.40
2023-03-10T08:14:29.984Z,4.72
2023-03-10T08:16:56.762Z,5.10
2023-03-10T08:19:24.630Z,5.38
2023-03-10T08:21:51.994Z,5.03
2023-03-10T08:24:18.627Z,4.88
2023-03-10T08:26:45.451Z,5.10
2023-03-10T08:29:12.486Z,4.50
2023-03-10T08:31:39.080Z,5.40
2023-03-10T08:34:05.844Z,4.03
2023-03-10T08:36:32.484Z,4.55
2023-03-10T08:39:05.453Z,4.68
2023-03-10T08:41:38.087Z,5.43
2023-03-10T08:44:05.490Z,4.80
2023-03-10T08:46:33.553Z,5.18
2023-03-10T08:49:01.198Z,6.20
2023-03-10T08:51:28.392Z,5.10
2023-03-10T08:53:55.121Z,4.53
2023-03-10T08:56:23.058Z,4.45
2023-03-10T08:58:49.645Z,4.82
2023-03-10T09:01:17.214Z,4.63
2023-03-10T09:03:45.042Z,4.70
2023-03-10T09:06:12.657Z,5.00
2023-03-10T09:08:41.121Z,5.25
2023-03-10T09:11:08.656Z,5.43
2023-03-10T09:13:35.485Z,4.88
2023-03-10T09:16:02.118Z,4.88
2023-03-10T09:18:28.582Z,4.33
2023-03-10T09:20:55.090Z,4.40
2023-03-10T09:23:21.695Z,4.72
2023-03-10T09:25:48.239Z,4.70
2023-03-10T09:28:17.415Z,4.40
2023-03-10T09:30:45.563Z,4.40
2023-03-10T09:33:16.831Z,3.92
2023-03-10T09:35:52.459Z,4.18
2023-03-10T09:38:19.533Z,4.47
2023-03-10T09:40:50.423Z,3.38
2023-03-10T09:43:20.893Z,3.37
2023-03-10T09:46:00.734Z,3.50
2023-03-10T09:48:53.014Z,2.97
2023-03-10T09:51:26.110Z,3.30
2023-03-10T09:53:58.314Z,2.80
2023-03-10T09:56:36.353Z,2.93
2023-03-10T09:59:11.145Z,3.10
2023-03-10T10:01:40.105Z,3.00
2023-03-10T10:04:11.616Z,3.38
2023-03-10T10:06:43.437Z,2.83
2023-03-10T10:09:15.124Z,2.93
2023-03-10T10:11:41.632Z,3.17
2023-03-10T10:14:27.704Z,2.20
2023-03-10T10:17:07.788Z,2.65
2023-03-10T10:19:37.180Z,2.53
2023-03-10T10:22:15.111Z,2.57
2023-03-10T10:24:55.096Z,2.42
2023-03-10T10:27:23.246Z,2.53
2023-03-10T10:29:50.987Z,2.60
2023-03-10T10:32:18.259Z,2.90
2023-03-10T10:34:46.860Z,2.60
2023-03-10T10:37:38.770Z,3.00
2023-03-10T10:40:23.861Z,2.35
2023-03-10T10:42:55.283Z,2.78
2023-03-10T10:45:33.027Z,2.80
2023-03-10T10:47:59.661Z,2.27
2023-03-10T10:50:27.907Z,2.53
2023-03-10T10:53:16.496Z,1.90
2023-03-10T10:55:44.764Z,2.20
2023-03-10T10:58:28.439Z,2.15
2023-03-10T11:00:58.656Z,1.53
2023-03-10T11:03:35.012Z,1.98
2023-03-10T11:06:12.002Z,1.83
2023-03-10T11:08:40.643Z,2.03
2023-03-10T11:11:18.665Z,2.67
2023-03-10T11:13:58.004Z,3.07
2023-03-10T11:16:36.337Z,3.25
2023-03-10T11:19:17.866Z,4.10
2023-03-10T11:21:49.353Z,4.47
2023-03-10T11:24:35.518Z,3.22
2023-03-10T11:27:10.862Z,3.97
2023-03-10T11:30:05.431Z,3.67
2023-03-10T11:32:53.658Z,4.78
2023-03-10T11:35:31.645Z,3.90
2023-03-10T11:38:28.477Z,3.63
2023-03-10T11:40:58.663Z,3.30
2023-03-10T11:43:47.384Z,3.50
2023-03-10T11:46:25.285Z,3.83
2023-03-10T11:49:12.334Z,3.67
2023-03-10T11:51:55.923Z,3.50
2023-03-10T11:54:30.048Z,3.20
2023-03-10T11:56:58.124Z,3.28
2023-03-10T11:59:30.571Z,2.70
2023-03-10T12:02:03.071Z,3.03
2023-03-10T12:04:31.722Z,2.92
2023-03-10T12:07:29.600Z,3.87
2023-03-10T12:10:12.428Z,2.90
2023-03-10T12:12:47.066Z,3.53
2023-03-10T12:15:36.834Z,3.10
2023-03-10T12:18:05.520Z,3.30
2023-03-10T12:20:33.851Z,4.03
2023-03-10T12:23:26.741Z,3.78
2023-03-10T12:25:53.382Z,3.95
2023-03-10T12:28:22.511Z,2.72
2023-03-10T12:31:10.591Z,3.38
2023-03-10T12:33:37.019Z,3.53
2023-03-10T12:36:21.971Z,3.53
2023-03-10T12:38:57.751Z,3.70
2023-03-10T12:41:27.421Z,3.58
2023-03-10T12:44:27.546Z,3.22
2023-03-10T12:47:09.072Z,2.63
2023-03-10T12:49:41.540Z,3.08
2023-03-10T12:52:20.603Z,3.25
2023-03-10T12:55:17.681Z,2.88
2023-03-10T12:58:04.753Z,2.60
2023-03-10T13:00:44.708Z,3.70
2023-03-10T13:03:35.318Z,3.50
2023-03-10T13:06:06.482Z,3.10
2023-03-10T13:08:44.744Z,3.33
2023-03-10T13:11:27.138Z,3.03
2023-03-10T13:14:01.831Z,3.07
2023-03-10T13:16:30.112Z,3.25
2023-03-10T13:18:56.726Z,3.45
2023-03-10T13:21:31.672Z,3.22
2023-03-10T13:24:03.484Z,4.03
2023-03-10T13:26:30.837Z,3.40
2023-03-10T13:29:00.748Z,3.75
2023-03-10T13:31:30.377Z,4.07
2023-03-10T13:33:57.700Z,3.45
2023-03-10T13:36:32.160Z,3.90
2023-03-10T13:39:04.568Z,3.67
2023-03-10T13:41:37.403Z,4.40
2023-03-10T13:44:04.272Z,3.72
2023-03-10T13:46:32.953Z,4.22
2023-03-10T13:49:06.480Z,3.70
2023-03-10T13:51:35.892Z,3.90
2023-03-10T13:54:28.288Z,2.88
2023-03-10T13:57:10.775Z,3.38
2023-03-10T13:59:37.814Z,3.38
2023-03-10T14:02:12.862Z,2.60
2023-03-10T14:04:45.359Z,2.67
2023-03-10T14:07:20.468Z,3.00
2023-03-10T14:10:08.735Z,3.35
2023-03-10T14:12:41.018Z,3.08
2023-03-10T14:15:20.675Z,3.10
2023-03-10T14:17:51.118Z,3.60
2023-03-10T14:20:36.293Z,3.00
2023-03-10T14:23:36.647Z,2.80
2023-03-10T14:26:08.566Z,3.25
2023-03-10T14:28:35.057Z,2.67
2023-03-10T14:31:06.722Z,3.60
2023-03-10T14:33:33.405Z,2.83
2023-03-10T14:36:00.019Z,3.05
2023-03-10T14:38:26.637Z,3.20
2023-03-10T14:40:54.717Z,3.22
2023-03-10T14:43:28.809Z,3.43
2023-03-10T14:45:58.654Z,4.03
2023-03-10T14:48:30.739Z,3.40
2023-03-10T14:50:57.315Z,3.45
2023-03-10T14:53:25.555Z,4.55
2023-03-10T14:55:55.115Z,4.17
2023-03-10T14:58:28.404Z,3.80
2023-03-10T15:00:55.007Z,3.92
2023-03-10T15:03:21.672Z,4.60
2023-03-10T15:05:49.286Z,4.78
2023-03-10T15:08:17.511Z,6.00
2023-03-10T15:10:50.575Z,4.55
2023-03-10T15:13:23.485Z,5.28
2023-03-10T15:15:50.699Z,5.40
2023-03-10T15:18:20.561Z,4.28
2023-03-10T15:20:48.259Z,5.17
2023-03-10T15:23:18.166Z,5.68
2023-03-10T15:25:46.341Z,5.75
2023-03-10T15:28:13.648Z,4.60
2023-03-10T15:30:40.168Z,3.83
2023-03-10T15:33:06.801Z,5.40
2023-03-10T15:35:33.454Z,5.40
2023-03-10T15:37:59.990Z,4.63
2023-03-10T15:40:29.870Z,5.93
2023-03-10T15:42:57.753Z,6.18
2023-03-10T15:45:30.674Z,5.43
2023-03-10T15:47:57.907Z,6.75
2023-03-10T15:50:24.795Z,5.78
2023-03-10T15:52:54.668Z,6.32
2023-03-10T15:55:21.761Z,7.00
2023-03-10T15:57:49.820Z,7.00
2023-03-10T16:00:18.155Z,5.25
2023-03-10T16:02:45.565Z,4.78
2023-03-10T16:05:12.541Z,3.75
2023-03-10T16:07:39.054Z,2.83
2023-03-10T16:10:06.034Z,2.77
2023-03-10T16:12:32.582Z,2.75
2023-03-10T16:14:59.244Z,2.78
2023-03-10T16:17:28.732Z,3.22
2023-03-10T16:19:55.540Z,3.22
2023-03-10T16:22:22.552Z,2.47
2023-03-10T16:24:49.381Z,3.13
2023-03-10T16:27:18.214Z,3.92
2023-03-10T16:29:45.165Z,3.88
2023-03-10T16:32:12.518Z,2.53
2023-03-10T16:34:39.016Z,2.20
2023-03-10T16:37:08.069Z,1.58
2023-03-10T16:39:35.246Z,1.77
2023-03-10T16:42:01.849Z,2.08
2023-03-10T16:44:28.363Z,2.80
2023-03-10T16:46:55.036Z,2.77
2023-03-10T16:49:21.908Z,2.85
2023-03-10T16:51:48.833Z,2.92
2023-03-10T16:54:18.000Z,3.72
2023-03-10T16:56:47.561Z,4.13
2023-03-10T16:59:18.292Z,3.43
2023-03-10T17:01:45.769Z,2.60
2023-03-10T17:04:12.619Z,4.05
2023-03-10T17:06:39.278Z,3.85
2023-03-10T17:09:07.642Z,3.05
2023-03-10T17:11:38.059Z,3.97
2023-03-10T17:14:07.534Z,2.90
2023-03-10T17:16:35.594Z,3.60
2023-03-10T17:19:05.388Z,3.05
2023-03-10T17:21:37.882Z,2.75
2023-03-10T17:24:06.020Z,3.67
2023-03-10T17:26:32.914Z,3.83
2023-03-10T17:28:59.480Z,3.78
2023-03-10T17:31:27.616Z,4.55
2023-03-10T17:34:00.377Z,4.22
2023-03-10T17:36:27.987Z,5.47
2023-03-10T17:38:59.675Z,3.67
2023-03-10T17:41:27.929Z,3.65
2023-03-10T17:43:54.842Z,3.70
2023-03-10T17:46:24.396Z,4.20
2023-03-10T17:48:52.843Z,4.43
2023-03-10T17:51:30.744Z,3.67
2023-03-10T17:53:59.627Z,4.10
2023-03-10T17:56:27.176Z,4.28
2023-03-10T17:58:54.814Z,3.03
2023-03-10T18:01:25.970Z,2.50
2023-03-10T18:03:53.173Z,3.50
2023-03-10T18:06:25.164Z,3.65
2023-03-10T18:08:53.710Z,2.30
2023-03-10T18:11:22.172Z,1.88
2023-03-10T18:13:49.021Z,2.23
2023-03-10T18:16:18.874Z,1.75
2023-03-10T18:18:46.133Z,1.80
2023-03-10T18:21:14.263Z,2.03
2023-03-10T18:23:41.114Z,2.13
2023-03-10T18:26:09.332Z,2.13
2023-03-10T18:29:32.257Z,1.90
2023-03-10T18:31:58.805Z,1.67
2023-03-10T18:34:25.452Z,1.85
2023-03-10T18:36:52.113Z,2.00
2023-03-10T18:39:18.628Z,2.00
2023-03-10T18:41:45.158Z,1.20
2023-03-10T18:44:11.821Z,2.03
2023-03-10T18:46:38.666Z,1.85
2023-03-10T18:49:05.620Z,1.35
2023-03-10T18:51:32.112Z,1.73
2023-03-10T18:53:58.675Z,1.30
2023-03-10T18:56:28.771Z,1.00
2023-03-10T18:58:55.294Z,1.13
2023-03-10T19:01:22.070Z,2.65
2023-03-10T19:03:48.593Z,2.77
2023-03-10T19:06:15.093Z,3.10
2023-03-10T19:08:41.621Z,3.58
2023-03-10T19:11:08.144Z,2.75
2023-03-10T19:13:35.236Z,3.60
2023-03-10T19:16:09.402Z,2.30
2023-03-10T19:18:36.019Z,1.20
2023-03-10T19:21:02.773Z,2.85
2023-03-10T19:23:29.337Z,2.58
2023-03-10T19:25:55.954Z,3.20
2023-03-10T19:28:22.493Z,4.60
2023-03-10T19:30:49.132Z,2.65
2023-03-10T19:33:15.625Z,1.10
2023-03-10T19:35:42.244Z,1.40
2023-03-10T19:38:08.805Z,3.25
2023-03-10T19:40:35.421Z,2.80
2023-03-10T19:43:02.515Z,2.72
2023-03-10T19:45:29.032Z,1.63
2023-03-10T19:47:57.849Z,1.90
2023-03-10T19:50:25.287Z,0.90
2023-03-10T19:52:52.216Z,1.67
2023-03-10T19:55:22.952Z,1.23
2023-03-10T19:57:51.968Z,1.40
2023-03-10T20:00:25.633Z,1.13
2023-03-10T20:02:54.035Z,1.27
2023-03-10T20:05:21.780Z,1.30
2023-03-10T20:07:48.828Z,0.55
2023-03-10T20:10:16.838Z,0.88
2023-03-10T20:12:43.701Z,2.47
2023-03-10T20:15:10.709Z,1.30
2023-03-10T20:17:37.455Z,1.10
2023-03-10T20:20:10.063Z,2.78
2023-03-10T20:22:40.973Z,0.95
2023-03-10T20:25:09.978Z,1.45
2023-03-10T20:27:37.604Z,1.20
2023-03-10T20:30:12.466Z,1.60
2023-03-10T20:32:39.014Z,1.63
2023-03-10T20:35:06.007Z,1.00
2023-03-10T20:37:33.727Z,1.08
2023-03-10T20:40:00.308Z,0.80
2023-03-10T20:42:27.360Z,1.07
2023-03-10T20:44:53.855Z,1.40
2023-03-10T20:47:20.391Z,2.30
2023-03-10T20:49:46.875Z,1.80
2023-03-10T20:52:13.381Z,0.80
2023-03-10T20:54:39.938Z,1.43
2023-03-10T20:57:06.484Z,0.90
2023-03-10T20:59:33.009Z,0.93
2023-03-10T21:01:59.540Z,1.30
2023-03-10T21:04:27.969Z,0.90
2023-03-10T21:06:54.557Z,1.00
2023-03-10T21:09:21.087Z,0.95
2023-03-10T21:11:47.601Z,0.98
2023-03-10T21:14:14.510Z,1.25
2023-03-10T21:16:42.010Z,1.25
2023-03-10T21:19:09.933Z,1.40
2023-03-10T21:21:36.602Z,1.50
2023-03-10T21:24:04.959Z,1.50
2023-03-10T21:26:31.977Z,1.65
2023-03-10T21:29:00.042Z,1.63
2023-03-10T21:31:26.922Z,1.03
2023-03-10T21:33:53.538Z,1.83
2023-03-10T21:36:22.986Z,2.25
2023-03-10T21:38:51.024Z,1.40
2023-03-10T21:41:26.849Z,1.00
2023-03-10T21:43:55.184Z,1.03
2023-03-10T21:46:22.151Z,1.45
2023-03-10T21:48:48.751Z,0.93
2023-03-10T21:51:17.888Z,1.35
2023-03-10T21:53:44.566Z,0.70
2023-03-10T21:56:11.594Z,2.00
2023-03-10T21:58:38.394Z,1.00
2023-03-10T22:01:06.208Z,2.50
2023-03-10T22:03:33.899Z,1.35
2023-03-10T22:06:01.568Z,3.47
2023-03-10T22:08:28.073Z,1.10
2023-03-10T22:10:54.658Z,1.10
2023-03-10T22:13:21.839Z,1.13
2023-03-10T22:15:48.450Z,1.00
2023-03-10T22:18:15.049Z,1.40
2023-03-10T22:20:41.517Z,0.90
2023-03-10T22:23:08.152Z,0.30
2023-03-10T22:25:34.753Z,1.10
2023-03-10T22:28:01.583Z,0.40
2023-03-10T22:30:29.463Z,0.90
2023-03-10T22:32:56.228Z,1.07
2023-03-10T22:35:23.135Z,0.55
2023-03-10T22:37:51.342Z,0.40
2023-03-10T22:40:20.714Z,0.77
2023-03-10T22:42:48.134Z,1.08
2023-03-10T22:45:27.467Z,0.60
2023-03-10T22:47:56.807Z,0.60
2023-03-10T22:50:29.738Z,0.57
2023-03-10T22:52:56.204Z,0.45
2023-03-10T22:55:24.778Z,0.40
2023-03-10T22:57:52.514Z,0.60
2023-03-10T23:00:21.972Z,0.70
2023-03-10T23:02:49.926Z,0.40
2023-03-10T23:05:17.154Z,0.50
2023-03-10T23:07:44.449Z,0.40
2023-03-10T23:10:18.218Z,0.53
2023-03-10T23:12:45.743Z,0.50
2023-03-10T23:15:24.835Z,0.70
2023-03-10T23:17:52.937Z,0.40
2023-03-10T23:20:19.605Z,0.40
2023-03-10T23:22:47.017Z,0.40
2023-03-10T23:25:20.099Z,0.60
2023-03-10T23:27:46.676Z,0.75
2023-03-10T23:30:17.052Z,0.40
2023-03-10T23:32:44.763Z,0.35
2023-03-10T23:35:13.150Z,0.37
2023-03-10T23:37:40.197Z,0.50
2023-03-10T23:40:10.633Z,0.40
2023-03-10T23:42:38.523Z,0.40
2023-03-10T23:45:08.029Z,0.82
2023-03-10T23:47:35.418Z,1.07
2023-03-10T23:50:03.592Z,0.45
2023-03-10T23:52:30.713Z,0.70
2023-03-10T23:54:57.236Z,0.63
2023-03-10T23:57:23.757Z,0.60
2023-03-10T23:59:50.335Z,0.40
